Time;durP1;ratioP1;P1;durP2;ratioP2;P2;SDS_P1;SDS_P2;PMS_P1;PMS_P2;Temp;Humidity;BMP_temperature;BMP_pressure;BME280_temperature;BME280_humidity;BME280_pressure;Samples;Min_cycle;Max_cycle;Signal;HPM_P1;HPM_P2
2021/07/02 00:00:42;;;;;;;;;;;;;;;22.55;75.80;100165.16;5070367;28;1474;-68
2021/07/02 00:03:09;;;;;;;;;;;;;;;22.50;72.19;100172.94;5071024;28;1470;-68
2021/07/02 00:05:37;;;;;;;;;;;;;;;22.47;72.51;100154.41;5070820;28;1496;-68
2021/07/02 00:08:04;;;;;;;;;;;;;;;22.46;72.57;100146.50;5072659;28;985;-68
2021/07/02 00:10:31;;;;;;;;;;;;;;;22.44;72.37;100136.75;5071501;28;1694;-68
2021/07/02 00:12:57;;;;;;;;;;;;;;;22.45;77.08;100156.44;5071478;28;1709;-65
2021/07/02 00:15:24;;;;;;;;;;;;;;;22.41;78.19;100129.00;5071481;28;1910;-66
2021/07/02 00:17:50;;;;;;;;;;;;;;;22.39;77.61;100138.28;5071284;28;1685;-69
2021/07/02 00:20:17;;;;;;;;;;;;;;;22.34;76.93;100146.03;5070927;28;1595;-68
2021/07/02 00:22:45;;;;;;;;;;;;;;;22.43;77.28;100137.75;5070573;28;1611;-68
2021/07/02 00:25:12;;;;;;;;;;;;;;;22.40;79.43;100129.16;5072267;28;966;-65
2021/07/02 00:27:39;;;;;;;;;;;;;;;22.36;78.94;100115.22;5071133;28;1714;-68
2021/07/02 00:30:06;;;;;;;;;;;;;;;22.38;78.62;100136.59;5070918;28;1602;-65
2021/07/02 00:32:33;;;;;;;;;;;;;;;22.41;77.96;100123.63;5072085;28;1031;-65
2021/07/02 00:34:59;;;;;;;;;;;;;;;22.38;77.37;100115.03;5071293;28;1702;-65
2021/07/02 00:37:26;;;;;;;;;;;;;;;22.35;78.25;100126.19;5070675;28;1909;-65
2021/07/02 00:39:54;;;;;;;;;;;;;;;22.35;78.25;100120.78;5070251;28;1477;-65
2021/07/02 00:42:21;;;;;;;;;;;;;;;22.35;77.54;100115.41;5072411;28;1068;-68
2021/07/02 00:44:48;;;;;;;;;;;;;;;22.34;72.42;100102.94;5070875;28;1542;-65
2021/07/02 00:47:16;;;;;;;;;;;;;;;22.40;72.37;100121.09;5070885;28;1718;-65
2021/07/02 00:49:43;;;;;;;;;;;;;;;22.43;71.86;100118.06;5070963;28;1439;-65
2021/07/02 00:52:10;;;;;;;;;;;;;;;22.35;71.76;100121.63;5070673;28;1623;-68
2021/07/02 00:54:38;;;;;;;;;;;;;;;22.33;71.37;100117.44;5072367;28;1470;-65
2021/07/02 00:57:07;;;;;;;;;;;;;;;22.33;74.47;100136.28;5074033;28;1980;-68
2021/07/02 00:59:33;;;;;;;;;;;;;;;22.31;77.20;100138.31;5074147;28;1450;-68
2021/07/02 01:02:00;;;;;;;;;;;;;;;22.35;73.81;100126.19;5074462;28;1710;-68
2021/07/02 01:04:27;;;;;;;;;;;;;;;22.29;77.27;100122.31;5075429;28;958;-65
2021/07/02 01:06:54;;;;;;;;;;;;;;;22.30;74.93;100134.75;5074625;28;1561;-67
2021/07/02 01:09:21;;;;;;;;;;;;;;;22.27;77.61;100143.19;5074144;28;1730;-68
2021/07/02 01:11:48;;;;;;;;;;;;;;;22.24;77.90;100147.09;5074306;28;1514;-65
2021/07/02 01:14:16;;;;;;;;;;;;;;;22.21;78.33;100139.28;5074295;28;1601;-68
2021/07/02 01:16:42;;;;;;;;;;;;;;;22.17;77.51;100135.28;5074082;28;1902;-68
2021/07/02 01:19:09;;;;;;;;;;;;;;;21.99;78.65;100110.41;5073750;28;1760;-68
2021/07/02 01:21:37;;;;;;;;;;;;;;;22.13;76.00;100141.19;5073255;28;1506;-67
2021/07/02 01:24:04;;;;;;;;;;;;;;;22.19;75.24;100144.03;5074093;28;1733;-65
2021/07/02 01:26:31;;;;;;;;;;;;;;;22.22;74.38;100157.16;5075110;28;1615;-68
2021/07/02 01:28:58;;;;;;;;;;;;;;;22.24;76.29;100152.47;5075178;28;1022;-65
2021/07/02 01:31:25;;;;;;;;;;;;;;;22.20;77.17;100148.41;5074287;28;1515;-67
2021/07/02 01:33:51;;;;;;;;;;;;;;;22.19;76.61;100160.19;5074017;28;1639;-68
2021/07/02 01:36:20;;;;;;;;;;;;;;;22.26;77.16;100164.91;5074327;28;1946;-68
2021/07/02 01:38:48;;;;;;;;;;;;;;;22.23;77.40;100166.06;5074074;28;1607;-68
2021/07/02 01:41:15;;;;;;;;;;;;;;;22.22;79.08;100165.22;5075449;28;987;-68
2021/07/02 01:43:41;;;;;;;;;;;;;;;22.20;76.35;100161.88;5073878;28;1607;-67
2021/07/02 01:46:08;;;;;;;;;;;;;;;22.22;76.56;100164.38;5074066;28;1630;-65
2021/07/02 01:48:34;;;;;;;;;;;;;;;22.22;79.48;100169.75;5073766;28;1580;-65
2021/07/02 01:51:01;;;;;;;;;;;;;;;22.26;74.62;100167.59;5073967;28;1567;-65
2021/07/02 01:53:27;;;;;;;;;;;;;;;22.29;70.95;100159.19;5073888;28;1571;-68
2021/07/02 01:55:56;;;;;;;;;;;;;;;22.21;76.83;100160.84;5073988;28;1902;-65
2021/07/02 01:58:22;;;;;;;;;;;;;;;22.20;71.29;100161.88;5073062;28;1490;-65
2021/07/02 02:03:24;;;;;;;;;;;;;;;22.28;72.77;100173.66;4988166;28;1735;-45
2021/07/02 02:05:51;;;;;;;;;;;;;;;22.29;76.00;100169.97;4975430;28;1064;-45
2021/07/02 02:08:19;;;;;;;;;;;;;;;22.19;73.62;100165.56;4981124;28;1591;-45
2021/07/02 02:10:47;;;;;;;;;;;;;;;22.18;74.62;100179.19;4982902;28;1761;-45
2021/07/02 02:13:16;;;;;;;;;;;;;;;22.16;74.08;100149.75;4985961;28;1869;-45
2021/07/02 02:15:45;;;;;;;;;;;;;;;22.14;74.13;100176.00;4982733;28;2251;-46
2021/07/02 02:18:28;;;;;;;;;;;;;;;22.17;76.94;100150.59;4986996;28;1902;-45
2021/07/02 02:21:02;;;;;;;;;;;;;;;22.22;77.14;100165.22;4986226;28;1504;-45
2021/07/02 02:23:31;;;;;;;;;;;;;;;22.13;77.84;100171.63;4978129;28;1846;-45
2021/07/02 02:25:58;;;;;;;;;;;;;;;22.07;73.75;100179.56;4983400;28;1076;-45
2021/07/02 02:28:27;;;;;;;;;;;;;;;22.13;73.48;100182.41;4986915;28;1781;-45
2021/07/02 02:30:54;;;;;;;;;;;;;;;22.20;71.28;100183.41;4984464;28;1681;-44
2021/07/02 02:33:20;;;;;;;;;;;;;;;22.22;72.36;100200.25;4992484;28;1520;-45
2021/07/02 02:35:47;;;;;;;;;;;;;;;22.20;75.96;100187.94;4979650;28;1532;-45
2021/07/02 02:38:14;;;;;;;;;;;;;;;22.11;74.07;100195.19;4990179;28;1959;-46
2021/07/02 02:40:42;;;;;;;;;;;;;;;22.07;73.22;100198.41;4980883;28;1905;-45
2021/07/02 02:43:10;;;;;;;;;;;;;;;22.13;76.53;100197.72;4992830;28;1791;-45
2021/07/02 02:45:38;;;;;;;;;;;;;;;22.07;74.20;100195.72;4984137;28;1481;-45
2021/07/02 02:48:05;;;;;;;;;;;;;;;22.16;75.13;100197.38;4979519;28;1644;-45
2021/07/02 02:50:33;;;;;;;;;;;;;;;22.18;74.83;100201.59;4984004;28;1094;-45
2021/07/02 02:53:01;;;;;;;;;;;;;;;22.11;77.35;100200.59;4988405;28;1749;-45
2021/07/02 02:55:29;;;;;;;;;;;;;;;22.10;71.55;100198.06;4987995;28;1638;-45
2021/07/02 02:57:55;;;;;;;;;;;;;;;22.09;72.38;100212.53;4988698;28;1903;-45
2021/07/02 03:00:22;;;;;;;;;;;;;;;22.14;75.32;100202.09;4984831;28;2348;-44
2021/07/02 03:02:49;;;;;;;;;;;;;;;22.13;70.32;100224.66;4997857;28;1745;-45
2021/07/02 03:05:16;;;;;;;;;;;;;;;22.08;70.55;100200.06;5001807;28;1556;-45
2021/07/02 03:07:42;;;;;;;;;;;;;;;22.08;72.51;100206.28;5004502;28;1670;-45
2021/07/02 03:10:10;;;;;;;;;;;;;;;22.08;73.33;100210.84;5003039;28;1003;-44
2021/07/02 03:12:36;;;;;;;;;;;;;;;22.05;73.06;100207.47;4997017;28;1565;-45
2021/07/02 03:15:04;;;;;;;;;;;;;;;22.10;76.98;100219.59;5001937;28;1167;-44
2021/07/02 03:17:31;;;;;;;;;;;;;;;22.10;74.05;100212.34;4997444;28;1938;-46
2021/07/02 03:19:59;;;;;;;;;;;;;;;22.12;75.48;100202.25;4998001;28;1719;-45
2021/07/02 03:22:25;;;;;;;;;;;;;;;22.14;72.54;100202.09;5002599;28;1615;-45
2021/07/02 03:24:52;;;;;;;;;;;;;;;22.19;74.28;100208.66;5004880;28;1741;-45
2021/07/02 03:27:18;;;;;;;;;;;;;;;22.13;75.24;100212.03;5008556;28;1518;-45
2021/07/02 03:29:49;;;;;;;;;;;;;;;22.19;76.32;100211.34;5010674;28;1777;-45
2021/07/02 03:32:16;;;;;;;;;;;;;;;22.16;71.10;100203.63;5007908;28;1275;-45
2021/07/02 03:34:44;;;;;;;;;;;;;;;22.24;71.94;100216.25;5006175;28;1787;-44
2021/07/02 03:37:12;;;;;;;;;;;;;;;22.22;71.17;100211.03;5000175;28;2028;-45
2021/07/02 03:39:38;;;;;;;;;;;;;;;22.28;72.34;100227.53;5002800;28;1759;-45
2021/07/02 03:42:05;;;;;;;;;;;;;;;22.28;71.17;100236.44;5006865;28;1004;-46
2021/07/02 03:44:32;;;;;;;;;;;;;;;22.32;72.49;100245.03;5000784;28;2064;-45
2021/07/02 03:46:58;;;;;;;;;;;;;;;22.30;71.02;100255.97;5001773;28;1747;-45
2021/07/02 03:49:25;;;;;;;;;;;;;;;22.31;71.53;100257.66;5002335;28;1834;-44
2021/07/02 03:51:51;;;;;;;;;;;;;;;22.28;71.07;100252.59;5001734;28;1841;-45
2021/07/02 03:54:19;;;;;;;;;;;;;;;22.34;71.40;100248.38;5001470;28;1758;-45
2021/07/02 03:59:26;;;;;;;;;;;;;;;22.30;71.83;100255.13;5001058;28;1843;-45
2021/07/02 04:01:52;;;;;;;;;;;;;;;22.30;71.61;100263.22;5000895;28;2008;-45
2021/07/02 04:04:20;;;;;;;;;;;;;;;22.28;71.50;100271.44;5003711;28;1071;-45
2021/07/02 04:06:46;;;;;;;;;;;;;;;22.26;71.16;100253.78;4999120;28;1802;-45
2021/07/02 04:09:14;;;;;;;;;;;;;;;22.26;71.53;100265.41;5006446;28;1832;-45
2021/07/02 04:11:43;;;;;;;;;;;;;;;22.28;74.84;100265.22;4994031;28;1474;-45
2021/07/02 04:14:10;;;;;;;;;;;;;;;22.30;71.62;100264.03;5003937;28;1681;-45
2021/07/02 04:16:39;;;;;;;;;;;;;;;22.45;71.18;100277.69;4998195;28;1972;-45
2021/07/02 04:19:07;;;;;;;;;;;;;;;22.37;71.60;100266.91;5004410;28;1500;-45
2021/07/02 04:21:33;;;;;;;;;;;;;;;22.34;71.16;100264.56;4995851;28;1590;-45
2021/07/02 04:24:00;;;;;;;;;;;;;;;22.34;71.10;100265.41;5003719;28;1786;-44
2021/07/02 04:26:27;;;;;;;;;;;;;;;22.44;71.00;100287.63;4997649;28;1159;-45
2021/07/02 04:28:57;;;;;;;;;;;;;;;22.49;70.55;100275.50;5002814;28;1810;-45
2021/07/02 04:31:24;;;;;;;;;;;;;;;22.54;71.98;100282.06;5002655;28;1562;-44
2021/07/02 04:33:50;;;;;;;;;;;;;;;22.61;72.23;100274.97;5011298;28;1632;-45
2021/07/02 04:36:18;;;;;;;;;;;;;;;22.71;70.48;100288.25;5012070;28;1750;-44
2021/07/02 04:38:45;;;;;;;;;;;;;;;22.71;70.48;100290.13;5005591;28;1902;-45
2021/07/02 04:41:12;;;;;;;;;;;;;;;22.61;70.69;100280.34;5005704;28;1079;-45
2021/07/02 04:43:40;;;;;;;;;;;;;;;22.47;71.16;100291.81;5000798;28;1619;-44
2021/07/02 04:46:08;;;;;;;;;;;;;;;22.42;70.98;100283.41;5003226;28;1630;-45
2021/07/02 04:48:36;;;;;;;;;;;;;;;22.34;71.14;100286.97;5006816;28;1579;-44
2021/07/02 04:51:04;;;;;;;;;;;;;;;22.26;70.88;100291.50;5003831;28;1766;-45
2021/07/02 04:53:30;;;;;;;;;;;;;;;22.29;71.11;100293.88;5005213;28;1598;-44
2021/07/02 04:55:58;;;;;;;;;;;;;;;22.39;70.81;100306.13;5010683;28;1282;-45
2021/07/02 04:58:24;;;;;;;;;;;;;;;22.39;71.17;100300.75;5011851;28;1906;-45
2021/07/02 05:00:51;;;;;;;;;;;;;;;22.36;71.09;100295.72;5003897;28;1477;-44
2021/07/02 05:03:20;;;;;;;;;;;;;;;22.34;71.29;100295.03;5004162;28;1591;-44
2021/07/02 05:05:46;;;;;;;;;;;;;;;22.32;71.27;100290.81;5002652;28;1541;-45
2021/07/02 05:08:13;;;;;;;;;;;;;;;22.33;71.58;100303.28;5004359;28;1783;-45
2021/07/02 05:10:42;;;;;;;;;;;;;;;22.34;71.29;100291.50;5005553;28;1283;-45
2021/07/02 05:13:09;;;;;;;;;;;;;;;22.35;71.11;100287.81;5004645;28;1703;-45
2021/07/02 05:15:36;;;;;;;;;;;;;;;22.42;70.98;100291.47;5008705;28;1755;-44
2021/07/02 05:18:03;;;;;;;;;;;;;;;22.38;71.46;100295.53;5011873;28;1902;-44
2021/07/02 05:20:31;;;;;;;;;;;;;;;22.41;71.31;100301.44;5007531;28;1496;-45
2021/07/02 05:22:58;;;;;;;;;;;;;;;22.48;71.11;100306.97;5009247;28;1719;-44
2021/07/02 05:25:26;;;;;;;;;;;;;;;22.48;71.08;100304.28;5006542;28;1278;-44
2021/07/02 05:27:54;;;;;;;;;;;;;;;22.59;70.90;100306.63;5009732;28;1399;-45
2021/07/02 05:30:21;;;;;;;;;;;;;;;22.57;71.11;100305.97;5001750;28;1517;-44
2021/07/02 05:32:48;;;;;;;;;;;;;;;22.63;70.55;100296.34;5015647;28;1070;-44
2021/07/02 05:35:16;;;;;;;;;;;;;;;22.77;69.67;100297.50;5001714;28;1761;-45
2021/07/02 05:37:45;;;;;;;;;;;;;;;22.82;69.97;100308.63;5000295;28;1969;-45
2021/07/02 05:40:21;;;;;;;;;;;;;;;22.83;70.19;100297.66;5008722;28;1800;-45
2021/07/02 05:42:48;;;;;;;;;;;;;;;22.88;70.13;100313.34;5000168;28;1390;-44
2021/07/02 05:45:15;;;;;;;;;;;;;;;22.89;70.01;100306.91;5006165;28;1083;-44
2021/07/02 05:47:58;;;;;;;;;;;;;;;22.93;70.26;100297.47;5008573;28;1583;-45
2021/07/02 05:50:26;;;;;;;;;;;;;;;22.94;70.32;100296.47;5006451;28;1154;-44
2021/07/02 05:52:55;;;;;;;;;;;;;;;23.07;70.42;100320.22;5007542;28;1823;-45
2021/07/02 05:55:23;;;;;;;;;;;;;;;23.14;70.64;100288.84;5004458;28;1686;-45
2021/07/02 05:57:49;;;;;;;;;;;;;;;23.14;70.27;100315.81;4998879;28;1898;-44
2021/07/02 06:00:17;;;;;;;;;;;;;;;23.10;70.25;100298.28;5006458;28;1558;-44
2021/07/02 06:02:44;;;;;;;;;;;;;;;23.24;70.30;100304.81;5004197;28;1433;-44
2021/07/02 06:05:12;;;;;;;;;;;;;;;23.23;70.39;100322.84;5002400;28;1595;-44
2021/07/02 06:07:42;;;;;;;;;;;;;;;23.28;70.56;100327.72;5009058;28;2920;-44
2021/07/02 06:10:11;;;;;;;;;;;;;;;23.35;71.63;100312.50;5008064;28;1823;-46
2021/07/02 06:12:38;;;;;;;;;;;;;;;23.36;72.29;100305.28;5002143;28;2029;-44
2021/07/02 06:15:11;;;;;;;;;;;;;;;23.47;73.24;100304.03;5004947;28;1945;-44
2021/07/02 06:17:37;;;;;;;;;;;;;;;23.42;73.36;100305.41;4995904;28;1906;-44
2021/07/02 06:20:04;;;;;;;;;;;;;;;23.46;72.46;100310.44;5009197;28;1811;-45
2021/07/02 06:22:31;;;;;;;;;;;;;;;23.49;72.18;100319.03;5001012;28;2010;-44
2021/07/02 06:24:57;;;;;;;;;;;;;;;23.52;72.50;100312.47;4992407;28;1139;-43
2021/07/02 06:27:25;;;;;;;;;;;;;;;23.57;72.48;100307.34;4998689;28;1981;-44
2021/07/02 06:29:51;;;;;;;;;;;;;;;23.57;72.62;100307.34;5005057;28;1132;-44
2021/07/02 06:32:18;;;;;;;;;;;;;;;23.57;73.17;100299.25;5007300;28;1808;-44
2021/07/02 06:34:44;;;;;;;;;;;;;;;23.58;73.00;100317.16;5000929;28;1802;-43
2021/07/02 06:37:11;;;;;;;;;;;;;;;23.59;73.42;100324.22;5003019;28;1800;-44
2021/07/02 06:39:37;;;;;;;;;;;;;;;23.58;73.86;100325.25;5004363;28;1902;-44
2021/07/02 06:42:04;;;;;;;;;;;;;;;23.62;73.62;100331.97;5002647;28;1854;-43
2021/07/02 06:44:32;;;;;;;;;;;;;;;23.57;73.83;100331.66;5002444;28;1782;-43
2021/07/02 06:46:59;;;;;;;;;;;;;;;23.52;74.31;100324.09;5002387;28;1971;-44
2021/07/02 06:49:26;;;;;;;;;;;;;;;23.53;74.46;100324.91;5002709;28;1097;-43
2021/07/02 06:51:52;;;;;;;;;;;;;;;23.55;74.45;100329.13;5004963;28;1899;-44
2021/07/02 06:54:19;;;;;;;;;;;;;;;23.59;74.49;100337.72;4998840;28;2042;-44
2021/07/02 06:59:25;;;;;;;;;;;;;;;23.58;74.07;100339.56;4993905;28;1961;-44
2021/07/02 07:01:54;;;;;;;;;;;;;;;23.63;74.56;100347.13;5001669;28;1837;-44
2021/07/02 07:04:20;;;;;;;;;;;;;;;23.62;74.50;100337.38;4993258;28;1064;-44
2021/07/02 07:06:47;;;;;;;;;;;;;;;23.62;74.30;100334.66;5004086;28;1872;-43
2021/07/02 07:09:13;;;;;;;;;;;;;;;23.61;74.63;100327.56;5003914;28;1750;-44
2021/07/02 07:11:40;;;;;;;;;;;;;;;23.66;74.55;100332.47;4993750;28;1735;-45
2021/07/02 07:14:06;;;;;;;;;;;;;;;23.66;74.19;100324.38;5002164;28;1076;-43
2021/07/02 07:16:34;;;;;;;;;;;;;;;23.67;74.36;100326.88;5001203;28;1816;-44
2021/07/02 07:19:01;;;;;;;;;;;;;;;23.62;74.39;100300.41;5005363;28;1910;-44
2021/07/02 07:21:28;;;;;;;;;;;;;;;23.69;74.38;100316.72;5003180;28;1958;-43
2021/07/02 07:23:54;;;;;;;;;;;;;;;23.68;74.50;100312.38;4998472;28;1594;-43
2021/07/02 07:26:21;;;;;;;;;;;;;;;23.70;74.41;100318.44;5010428;28;1175;-44
2021/07/02 07:28:47;;;;;;;;;;;;;;;23.66;74.83;100325.19;5000250;28;1909;-44
2021/07/02 07:31:14;;;;;;;;;;;;;;;23.67;74.83;100326.03;5000379;28;1916;-44
2021/07/02 07:33:44;;;;;;;;;;;;;;;23.66;74.44;100324.38;5008476;28;1654;-44
2021/07/02 07:36:15;;;;;;;;;;;;;;;23.68;75.15;100331.25;5001640;28;1774;-43
2021/07/02 07:38:41;;;;;;;;;;;;;;;23.65;74.76;100322.66;5002467;28;1910;-43
2021/07/02 07:41:08;;;;;;;;;;;;;;;23.68;75.20;100335.81;4992632;28;1091;-44
2021/07/02 07:43:34;;;;;;;;;;;;;;;23.63;75.12;100325.53;4997426;28;2023;-44
2021/07/02 07:46:01;;;;;;;;;;;;;;;23.64;74.93;100335.34;4999630;28;1859;-43
2021/07/02 07:48:27;;;;;;;;;;;;;;;23.63;75.62;100326.41;5003488;28;1722;-44
2021/07/02 07:51:02;;;;;;;;;;;;;;;23.70;75.28;100329.22;5001547;28;1756;-43
2021/07/02 07:53:30;;;;;;;;;;;;;;;23.68;75.03;100328.56;5001635;28;1789;-44
2021/07/02 07:55:56;;;;;;;;;;;;;;;23.71;74.84;100316.56;5001900;28;1171;-43
2021/07/02 07:58:23;;;;;;;;;;;;;;;23.69;75.38;100324.81;5001783;28;1969;-43
2021/07/02 08:00:49;;;;;;;;;;;;;;;23.72;75.43;100311.00;5003953;28;1723;-45
2021/07/02 08:03:16;;;;;;;;;;;;;;;23.70;75.74;100315.72;4999738;28;1607;-44
2021/07/02 08:05:42;;;;;;;;;;;;;;;23.68;75.76;100320.47;4999961;28;1587;-44
2021/07/02 08:08:12;;;;;;;;;;;;;;;23.69;75.44;100314.03;5003917;28;1979;-44
2021/07/02 08:10:40;;;;;;;;;;;;;;;23.68;75.53;100306.97;4992892;28;1063;-44
2021/07/02 08:13:07;;;;;;;;;;;;;;;23.69;75.30;100308.63;4997681;28;1811;-44
2021/07/02 08:15:33;;;;;;;;;;;;;;;23.70;75.21;100302.22;5002037;28;1802;-44
2021/07/02 08:18:00;;;;;;;;;;;;;;;23.73;75.45;100318.06;5001214;28;1985;-44
2021/07/02 08:20:26;;;;;;;;;;;;;;;23.72;75.36;100313.69;5000575;28;1833;-43
2021/07/02 08:22:53;;;;;;;;;;;;;;;23.70;75.36;100299.53;5003853;28;1102;-44
2021/07/02 08:25:19;;;;;;;;;;;;;;;23.74;75.35;100294.63;5002051;28;1817;-44
2021/07/02 08:30:31;;;;;;;;;;;;;;;23.71;75.38;100305.75;5001013;28;1692;-45
2021/07/02 08:32:58;;;;;;;;;;;;;;;23.71;75.90;100300.38;4998430;28;1158;-44
2021/07/02 08:35:24;;;;;;;;;;;;;;;23.74;75.62;100308.13;4998596;28;1976;-44
2021/07/02 08:37:52;;;;;;;;;;;;;;;23.74;75.73;100317.06;5005304;28;1969;-44
2021/07/02 08:40:19;;;;;;;;;;;;;;;23.75;75.72;100302.50;4997295;28;1826;-43
2021/07/02 08:42:47;;;;;;;;;;;;;;;23.75;75.77;100307.09;5008392;28;2116;-44
2021/07/02 08:45:14;;;;;;;;;;;;;;;23.74;75.51;100308.13;5002897;28;1080;-45
2021/07/02 08:47:40;;;;;;;;;;;;;;;23.74;75.70;100306.25;5003325;28;1678;-45
2021/07/02 08:50:07;;;;;;;;;;;;;;;23.76;75.81;100297.97;4997817;28;1805;-44
2021/07/02 08:52:35;;;;;;;;;;;;;;;23.79;75.75;100297.63;5005376;28;1963;-44
2021/07/02 08:55:02;;;;;;;;;;;;;;;23.74;76.27;100290.06;4998198;28;1751;-44
2021/07/02 08:57:30;;;;;;;;;;;;;;;23.75;75.69;100297.13;5002689;28;2200;-44
2021/07/02 08:59:58;;;;;;;;;;;;;;;23.77;75.82;100299.66;5003635;28;1910;-45
2021/07/02 09:02:29;;;;;;;;;;;;;;;23.77;75.73;100295.09;4999534;28;1814;-44
2021/07/02 09:04:56;;;;;;;;;;;;;;;23.77;76.09;100311.31;5000924;28;1677;-44
2021/07/02 09:07:22;;;;;;;;;;;;;;;23.80;75.80;100305.56;5001388;28;1866;-44
2021/07/02 09:09:49;;;;;;;;;;;;;;;23.79;75.45;100300.34;5001174;28;1085;-43
2021/07/02 09:12:16;;;;;;;;;;;;;;;23.80;75.94;100299.34;5008031;28;1976;-44
2021/07/02 09:14:55;;;;;;;;;;;;;;;23.77;75.93;100305.91;5000247;28;1809;-43
2021/07/02 09:17:24;;;;;;;;;;;;;;;23.79;75.41;100303.03;5003678;28;1749;-44
2021/07/02 09:20:02;;;;;;;;;;;;;;;23.79;75.76;100293.06;5003934;28;1902;-44
2021/07/02 09:22:28;;;;;;;;;;;;;;;23.79;75.50;100301.16;4996252;28;1833;-43
2021/07/02 09:24:55;;;;;;;;;;;;;;;23.79;75.51;100298.47;5004891;28;1176;-44
2021/07/02 09:27:23;;;;;;;;;;;;;;;23.81;75.85;100318.06;5011611;28;1943;-44
2021/07/02 09:30:01;;;;;;;;;;;;;;;23.80;76.03;100293.94;5002265;28;1720;-44
2021/07/02 09:32:29;;;;;;;;;;;;;;;23.78;76.27;100296.81;5006203;28;1150;-44
2021/07/02 09:34:58;;;;;;;;;;;;;;;23.78;75.96;100291.41;5005282;28;1853;-44
2021/07/02 09:37:26;;;;;;;;;;;;;;;23.78;76.43;100286.00;5004288;28;1779;-45
2021/07/02 09:39:52;;;;;;;;;;;;;;;23.78;76.03;100271.66;5004592;28;1977;-44
2021/07/02 09:42:29;;;;;;;;;;;;;;;23.78;76.08;100296.81;5000636;28;1155;-43
2021/07/02 09:45:09;;;;;;;;;;;;;;;23.78;76.20;100280.59;5001902;28;1733;-44
2021/07/02 09:47:37;;;;;;;;;;;;;;;23.80;76.09;100275.03;5002114;28;1895;-46
2021/07/02 09:50:13;;;;;;;;;;;;;;;23.78;75.81;100275.22;5008144;28;1579;-44
2021/07/02 09:52:44;;;;;;;;;;;;;;;23.78;75.92;100283.31;5000103;28;2009;-43
2021/07/02 09:55:11;;;;;;;;;;;;;;;23.79;75.87;100278.75;4999263;28;1894;-43
2021/07/02 09:57:37;;;;;;;;;;;;;;;23.78;76.17;100268.97;5008056;28;1934;-43
2021/07/02 10:00:05;;;;;;;;;;;;;;;23.79;75.86;100278.75;5001275;28;1977;-44
2021/07/02 10:02:32;;;;;;;;;;;;;;;23.78;76.07;100275.22;5004955;28;1816;-44
2021/07/02 10:05:01;;;;;;;;;;;;;;;23.78;75.94;100285.19;5003115;28;1814;-43
2021/07/02 10:07:27;;;;;;;;;;;;;;;23.78;75.80;100277.91;4995492;28;1750;-44
2021/07/02 10:09:54;;;;;;;;;;;;;;;23.79;75.87;100276.88;5004297;28;1106;-44
2021/07/02 10:12:21;;;;;;;;;;;;;;;23.80;76.04;100267.75;5010453;28;1768;-44
2021/07/02 10:14:49;;;;;;;;;;;;;;;23.79;76.06;100266.06;5002180;28;1805;-44
2021/07/02 10:17:16;;;;;;;;;;;;;;;23.79;76.50;100282.28;5004816;28;1823;-43
2021/07/02 10:19:43;;;;;;;;;;;;;;;23.79;75.86;100271.47;5002946;28;1982;-44
2021/07/02 10:22:11;;;;;;;;;;;;;;;23.77;76.47;100278.91;4993991;28;1650;-44
2021/07/02 10:24:38;;;;;;;;;;;;;;;23.84;76.29;100268.25;4994365;28;1090;-44
2021/07/02 10:27:05;;;;;;;;;;;;;;;23.79;75.88;100274.16;4995086;28;1960;-44
2021/07/02 10:29:32;;;;;;;;;;;;;;;23.81;76.19;100274.88;5002748;28;1774;-43
2021/07/02 10:31:59;;;;;;;;;;;;;;;23.81;76.38;100264.06;5003263;28;1844;-44
2021/07/02 10:34:26;;;;;;;;;;;;;;;23.80;76.34;100262.38;5002794;28;1096;-44
2021/07/02 10:36:52;;;;;;;;;;;;;;;23.81;76.06;100279.41;5001669;28;1939;-43
2021/07/02 10:39:30;;;;;;;;;;;;;;;23.80;76.48;100262.38;5001207;28;1942;-44
2021/07/02 10:42:04;;;;;;;;;;;;;;;23.81;76.38;100274.88;5011077;28;1891;-44
2021/07/02 10:44:30;;;;;;;;;;;;;;;23.82;75.93;100268.44;5003462;28;2397;-43
2021/07/02 10:47:01;;;;;;;;;;;;;;;23.79;76.75;100260.66;5002481;28;1898;-45
2021/07/02 10:49:35;;;;;;;;;;;;;;;23.81;76.44;100269.47;4993768;28;1096;-44
2021/07/02 10:52:01;;;;;;;;;;;;;;;23.82;76.13;100254.09;5002420;28;992;-44
2021/07/02 10:54:36;;;;;;;;;;;;;;;23.80;76.42;100273.16;5000477;28;1710;-44
2021/07/02 10:57:14;;;;;;;;;;;;;;;23.82;76.07;100271.13;5010569;28;1982;-44
2021/07/02 10:59:59;;;;;;;;;;;;;;;23.81;76.37;100261.34;5003139;28;1915;-44
2021/07/02 11:02:26;;;;;;;;;;;;;;;23.82;76.58;100264.91;5000653;28;1882;-44
2021/07/02 11:04:53;;;;;;;;;;;;;;;23.81;76.33;100253.25;5001940;28;1899;-44
2021/07/02 11:07:39;;;;;;;;;;;;;;;23.82;76.79;100264.91;5002261;28;1758;-45
2021/07/02 11:10:09;;;;;;;;;;;;;;;23.82;76.35;100249.53;4993743;28;1063;-45
2021/07/02 11:12:37;;;;;;;;;;;;;;;23.79;76.07;100249.88;4997493;28;1581;-44
2021/07/02 11:15:10;;;;;;;;;;;;;;;23.80;76.49;100240.78;5001261;28;1737;-43
2021/07/02 11:17:37;;;;;;;;;;;;;;;23.84;76.29;100238.56;4999960;28;1796;-45
2021/07/02 11:20:22;;;;;;;;;;;;;;;23.80;76.61;100239.94;5003168;28;1930;-43
2021/07/02 11:22:49;;;;;;;;;;;;;;;23.85;75.97;100242.91;5000793;28;1758;-43
2021/07/02 11:25:21;;;;;;;;;;;;;;;23.85;76.56;100253.72;5004095;28;1154;-44
2021/07/02 11:27:57;;;;;;;;;;;;;;;23.80;76.59;100229.13;5006337;28;1820;-44
2021/07/02 11:30:28;;;;;;;;;;;;;;;23.79;76.42;100236.38;5003156;28;1851;-44
2021/07/02 11:32:55;;;;;;;;;;;;;;;23.81;76.71;100226.25;5006665;28;1074;-45
2021/07/02 11:35:23;;;;;;;;;;;;;;;23.86;76.44;100238.38;5005217;28;1854;-44
2021/07/02 11:38:06;;;;;;;;;;;;;;;23.84;76.23;100240.41;4997585;28;1846;-44
2021/07/02 11:40:35;;;;;;;;;;;;;;;23.82;76.73;100238.72;4997724;28;2001;-43
2021/07/02 11:43:02;;;;;;;;;;;;;;;23.80;76.28;100240.78;4993635;28;1742;-44
2021/07/02 11:45:38;;;;;;;;;;;;;;;23.86;76.22;100241.06;5000971;28;1729;-44
2021/07/02 11:48:05;;;;;;;;;;;;;;;23.87;76.19;100248.16;5001580;28;1793;-43
2021/07/02 11:50:38;;;;;;;;;;;;;;;23.82;76.19;100238.72;4992850;28;2037;-43
2021/07/02 11:53:05;;;;;;;;;;;;;;;23.86;76.42;100243.78;5000506;28;1077;-43
2021/07/02 11:55:31;;;;;;;;;;;;;;;23.83;76.52;100234.16;4999874;28;1940;-43
2021/07/02 12:00:50;;;;;;;;;;;;;;;23.81;76.52;100225.41;5121640;27;1711;-47
2021/07/02 12:03:17;;;;;;;;;;;;;;;23.85;76.49;100231.28;5108223;28;1797;-47
2021/07/02 12:05:52;;;;;;;;;;;;;;;23.84;76.29;100232.31;5108568;28;1819;-47
2021/07/02 12:08:20;;;;;;;;;;;;;;;23.85;76.39;100229.41;5108422;28;1955;-47
2021/07/02 12:10:46;;;;;;;;;;;;;;;23.79;76.38;100212.06;5109972;28;1055;-46
2021/07/02 12:13:12;;;;;;;;;;;;;;;23.85;76.37;100225.88;5103722;28;2048;-47
2021/07/02 12:15:41;;;;;;;;;;;;;;;23.85;76.46;100233.97;5104093;28;1800;-47
2021/07/02 12:18:09;;;;;;;;;;;;;;;23.84;76.77;100222.34;5108266;28;1739;-47
2021/07/02 12:20:36;;;;;;;;;;;;;;;23.84;76.68;100218.81;5108123;28;1930;-47
2021/07/02 12:23:03;;;;;;;;;;;;;;;23.88;76.44;100222.84;5106842;28;1724;-44
2021/07/02 12:25:30;;;;;;;;;;;;;;;23.86;76.48;100216.78;5098587;28;997;-45
2021/07/02 12:27:58;;;;;;;;;;;;;;;23.85;76.21;100224.00;5100586;28;1966;-44
2021/07/02 12:30:24;;;;;;;;;;;;;;;23.85;76.71;100226.72;5107865;28;1749;-44
2021/07/02 12:32:52;;;;;;;;;;;;;;;23.86;76.59;100219.47;5109275;28;1110;-44
2021/07/02 12:35:20;;;;;;;;;;;;;;;23.86;76.55;100216.78;5107747;28;1945;-44
2021/07/02 12:37:46;;;;;;;;;;;;;;;23.86;76.65;100205.97;5108039;28;1962;-45
2021/07/02 12:40:14;;;;;;;;;;;;;;;23.85;76.65;100198.88;5108229;28;2021;-44
2021/07/02 12:42:44;;;;;;;;;;;;;;;23.83;76.86;100201.75;5108190;28;1797;-45
2021/07/02 12:45:12;;;;;;;;;;;;;;;23.83;76.47;100212.56;5100074;28;1059;-45
2021/07/02 12:47:39;;;;;;;;;;;;;;;23.85;76.76;100215.91;5100696;28;1767;-44
2021/07/02 12:50:07;;;;;;;;;;;;;;;23.85;76.76;100204.28;5105556;28;1903;-44
2021/07/02 12:55:21;;;;;;;;;;;;;;;23.84;76.59;100192.66;5089959;28;1881;-47
2021/07/02 12:57:54;;;;;;;;;;;;;;;23.84;76.68;100205.31;5107953;28;1913;-45
2021/07/02 13:00:25;;;;;;;;;;;;;;;23.86;76.61;100187.06;5102502;28;1918;-44
2021/07/02 13:02:52;;;;;;;;;;;;;;;23.84;76.89;100186.41;5098086;28;1921;-44
2021/07/02 13:05:27;;;;;;;;;;;;;;;23.82;76.62;100182.03;5098718;28;1799;-44
2021/07/02 13:07:55;;;;;;;;;;;;;;;23.83;76.64;100182.84;5107209;28;2057;-44